createdAt,value
2018-03-21T00:00:47.234Z,0.00
2018-03-21T00:02:47.496Z,0.00
2018-03-21T00:03:47.050Z,0.00
2018-03-21T00:04:47.011Z,0.00
2018-03-21T00:05:47.002Z,0.00
2018-03-21T00:07:46.940Z,0.00
2018-03-21T00:08:47.252Z,0.00
2018-03-21T00:09:47.088Z,0.00
2018-03-21T00:10:46.714Z,0.00
2018-03-21T00:11:46.680Z,0.00
2018-03-21T00:12:46.650Z,0.00
2018-03-21T00:13:46.627Z,0.00
2018-03-21T00:14:46.644Z,0.00
2018-03-21T00:15:46.563Z,0.00
2018-03-21T00:16:46.938Z,0.00
2018-03-21T00:17:46.517Z,0.00
2018-03-21T00:18:46.481Z,0.00
2018-03-21T00:19:46.450Z,0.00
2018-03-21T00:20:46.475Z,0.00
2018-03-21T00:21:46.394Z,0.00
2018-03-21T00:22:46.419Z,0.00
2018-03-21T00:23:46.737Z,0.00
2018-03-21T00:24:46.300Z,0.00
2018-03-21T00:25:46.280Z,0.00
2018-03-21T00:26:46.300Z,0.00
2018-03-21T00:27:46.223Z,0.00
2018-03-21T00:28:46.195Z,0.00
2018-03-21T00:29:46.167Z,0.00
2018-03-21T00:30:46.511Z,0.00
2018-03-21T00:31:46.104Z,0.00
2018-03-21T00:32:46.167Z,0.00
2018-03-21T00:33:46.045Z,0.00
2018-03-21T00:34:46.016Z,0.00
2018-03-21T00:35:45.985Z,0.00
2018-03-21T00:36:46.019Z,0.00
2018-03-21T00:37:46.248Z,0.00
2018-03-21T00:38:45.952Z,0.00
2018-03-21T00:39:45.874Z,0.00
2018-03-21T00:40:45.847Z,0.00
2018-03-21T00:41:45.818Z,0.00
2018-03-21T00:42:45.849Z,0.00
2018-03-21T00:43:45.809Z,0.00
2018-03-21T00:44:46.086Z,0.00
2018-03-21T00:45:45.713Z,0.00
2018-03-21T00:46:45.681Z,0.00
2018-03-21T00:47:45.639Z,0.00
2018-03-21T00:48:45.633Z,0.00
2018-03-21T00:49:45.634Z,0.00
2018-03-21T00:50:45.909Z,0.00
2018-03-21T00:51:45.734Z,0.00
2018-03-21T00:52:45.571Z,0.00
2018-03-21T00:53:45.464Z,0.00
2018-03-21T00:54:45.441Z,0.00
2018-03-21T00:55:45.404Z,0.00
2018-03-21T00:56:45.739Z,0.00
2018-03-21T00:57:45.535Z,0.00
2018-03-21T00:58:45.325Z,0.00
2018-03-21T00:59:45.295Z,0.00
2018-03-21T01:00:45.274Z,0.00
2018-03-21T01:01:45.246Z,0.00
2018-03-21T01:02:45.559Z,0.00
2018-03-21T01:03:45.178Z,0.00
2018-03-21T01:04:45.151Z,0.00
2018-03-21T01:05:45.121Z,0.00
2018-03-21T01:06:45.145Z,0.00
2018-03-21T01:07:45.358Z,0.00
2018-03-21T01:08:45.378Z,0.00
2018-03-21T01:09:45.013Z,0.00
2018-03-21T01:10:44.971Z,0.00
2018-03-21T01:11:44.992Z,0.00
2018-03-21T01:12:44.917Z,0.00
2018-03-21T01:13:44.891Z,0.00
2018-03-21T01:16:45.146Z,0.00
2018-03-21T01:17:44.771Z,0.00
2018-03-21T01:18:44.729Z,0.00
2018-03-21T01:19:44.707Z,0.00
2018-03-21T01:20:44.682Z,0.00
2018-03-21T01:21:44.651Z,0.00
2018-03-21T01:22:44.980Z,0.00
2018-03-21T01:23:44.595Z,0.00
2018-03-21T01:24:44.553Z,0.00
2018-03-21T01:25:44.522Z,0.00
2018-03-21T01:26:44.509Z,0.00
2018-03-21T01:27:44.468Z,0.00
2018-03-21T01:28:44.505Z,0.00
2018-03-21T01:29:44.722Z,0.00
2018-03-21T01:30:44.413Z,0.00
2018-03-21T01:32:44.330Z,0.00
2018-03-21T01:33:44.305Z,0.00
2018-03-21T01:34:44.324Z,0.00
2018-03-21T01:35:44.307Z,0.00
2018-03-21T01:36:44.509Z,0.00
2018-03-21T01:37:44.183Z,0.00
2018-03-21T01:38:44.140Z,0.00
2018-03-21T01:39:44.120Z,0.00
2018-03-21T01:40:44.217Z,0.00
2018-03-21T01:41:44.152Z,0.00
2018-03-21T01:42:44.033Z,0.00
2018-03-21T01:43:44.304Z,0.00
2018-03-21T01:44:43.965Z,0.00
2018-03-21T01:45:43.936Z,0.00
2018-03-21T01:46:43.964Z,0.00
2018-03-21T01:47:43.960Z,0.00
2018-03-21T01:48:43.848Z,0.00
2018-03-21T01:49:43.830Z,0.00
2018-03-21T01:51:44.072Z,0.00
2018-03-21T01:52:43.858Z,0.00
2018-03-21T01:53:43.796Z,0.00
2018-03-21T01:54:43.767Z,0.00
2018-03-21T01:55:43.661Z,0.00
2018-03-21T01:56:43.712Z,0.00
2018-03-21T01:57:43.675Z,0.00
2018-03-21T01:58:43.928Z,0.00
2018-03-21T01:59:43.541Z,0.00
2018-03-21T02:00:43.503Z,0.00
2018-03-21T02:01:43.528Z,0.00
2018-03-21T02:02:43.528Z,0.00
2018-03-21T02:03:43.497Z,0.00
2018-03-21T02:04:43.529Z,0.00
2018-03-21T02:05:43.732Z,0.00
2018-03-21T02:06:43.325Z,0.00
2018-03-21T02:07:43.295Z,0.00
2018-03-21T02:08:43.274Z,0.00
2018-03-21T02:09:43.250Z,0.00
2018-03-21T02:10:43.262Z,0.00
2018-03-21T02:11:43.482Z,0.00
2018-03-21T02:12:43.152Z,0.00
2018-03-21T02:13:43.125Z,0.00
2018-03-21T02:14:43.094Z,0.00
2018-03-21T02:15:43.062Z,0.00
2018-03-21T02:16:43.086Z,0.00
2018-03-21T02:17:43.301Z,0.00
2018-03-21T02:18:42.973Z,0.00
2018-03-21T02:19:42.944Z,0.00
2018-03-21T02:21:42.877Z,0.00
2018-03-21T02:22:43.057Z,0.00
2018-03-21T02:23:43.132Z,0.00
2018-03-21T02:24:42.800Z,0.00
2018-03-21T02:25:42.767Z,0.00
2018-03-21T02:26:42.748Z,0.00
2018-03-21T02:27:42.884Z,0.00
2018-03-21T02:28:42.716Z,0.00
2018-03-21T02:29:42.943Z,0.00
2018-03-21T02:30:42.616Z,0.00
2018-03-21T02:31:42.590Z,0.00
2018-03-21T02:32:42.557Z,0.00
2018-03-21T02:33:42.543Z,0.00
2018-03-21T02:34:42.550Z,0.00
2018-03-21T02:35:42.775Z,0.00
2018-03-21T02:36:42.495Z,0.00
2018-03-21T02:37:42.491Z,0.00
2018-03-21T02:38:42.425Z,0.00
2018-03-21T02:39:42.482Z,0.00
2018-03-21T02:40:42.450Z,0.00
2018-03-21T02:41:42.590Z,0.00
2018-03-21T02:42:42.284Z,0.00
2018-03-21T02:43:42.238Z,0.00
2018-03-21T02:44:42.258Z,0.00
2018-03-21T02:45:42.230Z,0.00
2018-03-21T02:46:42.200Z,0.00
2018-03-21T02:47:42.128Z,0.00
2018-03-21T02:48:42.703Z,0.00
2018-03-21T02:49:42.134Z,0.00
2018-03-21T02:50:42.054Z,0.00
2018-03-21T02:51:41.996Z,0.00
2018-03-21T02:54:42.260Z,0.00
2018-03-21T02:55:41.983Z,0.00
2018-03-21T02:56:41.964Z,0.00
2018-03-21T02:57:41.834Z,0.00
2018-03-21T02:58:41.791Z,0.00
2018-03-21T02:59:41.771Z,0.00
2018-03-21T03:00:41.775Z,0.00
2018-03-21T03:01:42.075Z,0.00
2018-03-21T03:03:41.644Z,0.00
2018-03-21T03:04:41.615Z,0.00
2018-03-21T03:05:41.580Z,0.00
2018-03-21T03:06:41.611Z,0.00
2018-03-21T03:07:41.529Z,0.00
2018-03-21T03:08:41.805Z,0.00
2018-03-21T03:09:41.452Z,0.00
2018-03-21T03:10:41.430Z,0.00
2018-03-21T03:11:41.398Z,0.00
2018-03-21T03:12:41.428Z,0.00
2018-03-21T03:13:41.344Z,0.00
2018-03-21T03:14:41.321Z,0.00
2018-03-21T03:15:41.586Z,0.00
2018-03-21T03:16:41.359Z,0.00
2018-03-21T03:17:41.222Z,0.00
2018-03-21T03:18:41.397Z,0.00
2018-03-21T03:19:41.170Z,0.00
2018-03-21T03:20:41.226Z,0.00
2018-03-21T03:21:41.173Z,0.00
2018-03-21T03:22:41.375Z,0.00
2018-03-21T03:23:41.042Z,0.00
2018-03-21T03:24:41.126Z,0.00
2018-03-21T03:25:41.035Z,0.00
2018-03-21T03:26:40.951Z,0.00
2018-03-21T03:27:40.933Z,0.00
2018-03-21T03:28:41.200Z,0.00
2018-03-21T03:29:40.879Z,0.00
2018-03-21T03:30:40.890Z,0.00
2018-03-21T03:31:40.815Z,0.00
2018-03-21T03:32:40.772Z,0.00
2018-03-21T03:33:40.800Z,0.00
2018-03-21T03:34:41.014Z,0.00
2018-03-21T03:35:40.691Z,0.00
2018-03-21T03:36:40.706Z,0.00
2018-03-21T03:37:40.627Z,0.00
2018-03-21T03:38:40.608Z,0.00
2018-03-21T03:40:40.924Z,0.00
2018-03-21T03:41:40.573Z,0.00
2018-03-21T03:42:40.587Z,0.00
2018-03-21T03:43:40.448Z,0.00
2018-03-21T03:44:40.422Z,0.00
2018-03-21T03:45:40.391Z,0.00
2018-03-21T03:46:40.714Z,0.00
2018-03-21T03:47:40.408Z,0.00
2018-03-21T03:48:40.539Z,0.00
2018-03-21T03:49:40.397Z,0.00
2018-03-21T03:50:40.477Z,0.00
2018-03-21T03:51:40.285Z,0.00
2018-03-21T03:52:40.687Z,0.00
2018-03-21T03:54:40.161Z,0.00
2018-03-21T03:55:40.079Z,0.00
2018-03-21T03:56:40.059Z,0.00
2018-03-21T03:57:40.027Z,0.00
2018-03-21T03:58:40.300Z,0.00
2018-03-21T03:59:39.974Z,0.00
2018-03-21T04:00:39.988Z,0.00
2018-03-21T04:01:39.897Z,0.00
2018-03-21T04:02:39.867Z,0.00
2018-03-21T04:03:40.133Z,0.00
2018-03-21T04:04:40.113Z,0.00
2018-03-21T04:05:39.789Z,0.00
2018-03-21T04:06:39.814Z,0.00
2018-03-21T04:07:39.724Z,0.00
2018-03-21T04:08:39.709Z,0.00
2018-03-21T04:09:39.664Z,0.00
2018-03-21T04:10:39.751Z,0.00
2018-03-21T04:11:39.907Z,0.00
2018-03-21T04:12:39.730Z,0.00
2018-03-21T04:13:39.565Z,0.00
2018-03-21T04:14:39.514Z,0.00
2018-03-21T04:15:39.568Z,0.00
2018-03-21T04:16:39.633Z,0.00
2018-03-21T04:17:39.425Z,0.00
2018-03-21T04:18:39.828Z,0.00
2018-03-21T04:19:39.366Z,0.00
2018-03-21T04:20:39.417Z,0.00
2018-03-21T04:21:39.356Z,0.00
2018-03-21T04:22:39.278Z,0.00
2018-03-21T04:23:39.327Z,0.00
2018-03-21T04:24:39.267Z,0.00
2018-03-21T04:25:39.490Z,0.00
2018-03-21T04:26:39.304Z,0.00
2018-03-21T04:27:39.136Z,0.00
2018-03-21T04:28:39.103Z,0.00
2018-03-21T04:29:39.071Z,0.00
2018-03-21T04:30:39.145Z,0.00
2018-03-21T04:31:39.015Z,0.00
2018-03-21T04:32:39.291Z,0.00
2018-03-21T04:33:39.006Z,0.00
2018-03-21T04:34:38.920Z,0.00
2018-03-21T04:35:38.935Z,0.00
2018-03-21T04:36:38.908Z,0.00
2018-03-21T04:37:38.821Z,0.00
2018-03-21T04:38:38.915Z,0.00
2018-03-21T04:39:39.212Z,0.00
2018-03-21T04:40:38.734Z,0.00
2018-03-21T04:41:38.822Z,0.00
2018-03-21T04:42:38.719Z,0.00
2018-03-21T04:43:38.650Z,0.00
2018-03-21T04:44:38.617Z,0.00
2018-03-21T04:45:38.696Z,0.00
2018-03-21T04:46:38.916Z,0.00
2018-03-21T04:47:38.536Z,0.00
2018-03-21T04:48:38.621Z,0.00
2018-03-21T04:49:38.503Z,0.00
2018-03-21T04:50:38.437Z,0.00
2018-03-21T04:51:38.408Z,0.00
2018-03-21T04:52:38.686Z,0.00
2018-03-21T04:53:38.448Z,0.00
2018-03-21T04:54:38.379Z,0.00
2018-03-21T04:55:38.281Z,0.00
2018-03-21T04:56:38.251Z,0.00
2018-03-21T04:57:38.217Z,0.00
2018-03-21T04:58:38.573Z,0.00
2018-03-21T04:59:38.268Z,0.00
2018-03-21T05:00:38.244Z,0.00
2018-03-21T05:01:38.160Z,0.00
2018-03-21T05:02:38.090Z,0.00
2018-03-21T05:03:38.355Z,0.00
2018-03-21T05:04:38.367Z,0.00
2018-03-21T05:05:37.994Z,0.00
2018-03-21T05:06:38.014Z,0.00
2018-03-21T05:07:38.001Z,0.00
2018-03-21T05:08:37.907Z,0.00
2018-03-21T05:10:38.146Z,0.00
2018-03-21T05:11:37.890Z,0.00
2018-03-21T05:12:37.832Z,0.00
2018-03-21T05:13:37.756Z,0.00
2018-03-21T05:14:37.808Z,5.63
2018-03-21T05:15:38.444Z,5.63
2018-03-21T05:16:37.961Z,5.63
2018-03-21T05:17:37.706Z,5.63
2018-03-21T05:18:37.655Z,5.63
2018-03-21T05:19:37.645Z,5.63
2018-03-21T05:20:37.616Z,5.63
2018-03-21T05:21:37.528Z,5.63
2018-03-21T05:22:37.783Z,5.63
2018-03-21T05:23:37.456Z,11.25
2018-03-21T05:24:37.475Z,11.25
2018-03-21T05:25:37.396Z,11.25
2018-03-21T05:26:37.375Z,11.25
2018-03-21T05:27:37.428Z,11.25
2018-03-21T05:28:37.381Z,16.88
2018-03-21T05:29:37.665Z,16.88
2018-03-21T05:30:37.298Z,16.88
2018-03-21T05:31:37.324Z,16.88
2018-03-21T05:32:37.291Z,16.88
2018-03-21T05:33:37.156Z,22.50
2018-03-21T05:34:37.319Z,22.50
2018-03-21T05:35:37.339Z,22.50
2018-03-21T05:36:37.824Z,22.50
2018-03-21T05:37:37.039Z,28.13
2018-03-21T05:38:37.010Z,28.13
2018-03-21T05:39:36.976Z,28.13
2018-03-21T05:40:37.027Z,28.13
2018-03-21T05:41:36.986Z,28.13
2018-03-21T05:42:37.006Z,33.75
2018-03-21T05:43:37.165Z,33.75
2018-03-21T05:44:36.905Z,33.75
2018-03-21T05:45:36.810Z,33.75
2018-03-21T05:47:36.819Z,33.75
2018-03-21T05:48:36.762Z,33.75
2018-03-21T05:50:37.122Z,39.38
2018-03-21T05:51:36.626Z,39.38
2018-03-21T05:52:36.653Z,39.38
2018-03-21T05:53:36.568Z,39.38
2018-03-21T05:54:37.547Z,39.38
2018-03-21T05:55:36.517Z,45.00
2018-03-21T05:56:36.490Z,45.00
2018-03-21T05:58:36.781Z,45.00
2018-03-21T05:59:36.391Z,50.63
2018-03-21T06:00:36.411Z,50.63
2018-03-21T06:01:36.340Z,50.63
2018-03-21T06:02:36.304Z,56.25
2018-03-21T06:03:36.271Z,56.25
2018-03-21T06:04:36.251Z,56.25
2018-03-21T06:05:36.514Z,56.25
2018-03-21T06:06:36.236Z,61.88
2018-03-21T06:07:36.172Z,61.88
2018-03-21T06:08:36.144Z,61.88
2018-03-21T06:09:36.171Z,67.50
2018-03-21T06:10:36.189Z,67.50
2018-03-21T06:11:36.376Z,67.50
2018-03-21T06:12:36.083Z,73.13
2018-03-21T06:13:35.996Z,73.13
2018-03-21T06:14:36.018Z,78.75
2018-03-21T06:15:35.935Z,78.75
2018-03-21T06:16:35.956Z,78.75
2018-03-21T06:17:36.253Z,78.75
2018-03-21T06:18:35.897Z,78.75
2018-03-21T06:19:35.819Z,78.75
2018-03-21T06:20:35.870Z,78.75
2018-03-21T06:21:35.779Z,78.75
2018-03-21T06:23:36.009Z,84.38
2018-03-21T06:24:35.734Z,84.38
2018-03-21T06:25:35.756Z,84.38
2018-03-21T06:26:35.782Z,84.38
2018-03-21T06:27:35.626Z,90.00
2018-03-21T06:28:35.586Z,90.00
2018-03-21T06:29:35.841Z,90.00
2018-03-21T06:30:35.619Z,95.63
2018-03-21T06:31:35.478Z,95.63
2018-03-21T06:32:35.452Z,95.63
2018-03-21T06:33:36.473Z,95.63
2018-03-21T06:34:35.498Z,95.63
2018-03-21T06:35:35.678Z,101.25
2018-03-21T06:36:35.407Z,101.25
2018-03-21T06:37:35.310Z,106.88
2018-03-21T06:38:35.292Z,112.50
2018-03-21T06:39:35.269Z,118.13
2018-03-21T06:41:35.646Z,129.38
2018-03-21T06:42:39.478Z,135.00
2018-03-21T06:43:35.780Z,140.63
2018-03-21T06:44:35.294Z,140.63
2018-03-21T06:45:35.168Z,146.25
2018-03-21T06:46:35.082Z,157.50
2018-03-21T06:49:35.341Z,163.13
2018-03-21T06:50:34.975Z,168.75
2018-03-21T06:51:34.939Z,168.75
2018-03-21T06:52:34.972Z,168.75
2018-03-21T06:53:34.884Z,168.75
2018-03-21T06:55:35.455Z,168.75
2018-03-21T06:58:34.847Z,168.75
2018-03-21T06:59:34.718Z,168.75
2018-03-21T07:00:34.697Z,174.38
2018-03-21T07:01:34.740Z,174.38
2018-03-21T07:02:35.018Z,174.38
2018-03-21T07:03:34.694Z,180.00
2018-03-21T07:04:34.687Z,180.00
2018-03-21T07:05:34.626Z,180.00
2018-03-21T07:06:34.594Z,180.00
2018-03-21T07:07:34.619Z,180.00
2018-03-21T07:08:34.543Z,180.00
2018-03-21T07:09:34.976Z,180.00
2018-03-21T07:10:37.301Z,185.63
2018-03-21T07:11:34.411Z,185.63
2018-03-21T07:12:34.395Z,185.63
2018-03-21T07:13:34.406Z,185.63
2018-03-21T07:14:34.443Z,185.63
2018-03-21T07:15:34.407Z,185.63
2018-03-21T07:16:34.579Z,185.63
2018-03-21T07:17:34.258Z,185.63
2018-03-21T07:18:34.276Z,180.00
2018-03-21T07:19:34.328Z,180.00
2018-03-21T07:20:34.181Z,180.00
2018-03-21T07:21:34.154Z,185.63
2018-03-21T07:22:34.262Z,185.63
2018-03-21T07:23:34.402Z,185.63
2018-03-21T07:24:34.138Z,185.63
2018-03-21T07:25:34.107Z,185.63
2018-03-21T07:26:34.059Z,191.25
2018-03-21T07:27:34.009Z,191.25
2018-03-21T07:28:33.992Z,191.25
2018-03-21T07:29:34.250Z,191.25
2018-03-21T07:30:33.929Z,191.25
2018-03-21T07:31:34.136Z,196.88
2018-03-21T07:32:33.885Z,196.88
2018-03-21T07:33:33.930Z,196.88
2018-03-21T07:34:33.962Z,196.88
2018-03-21T07:35:34.165Z,196.88
2018-03-21T07:36:33.788Z,202.50
2018-03-21T07:37:33.863Z,208.13
2018-03-21T07:38:33.980Z,213.75
2018-03-21T07:39:33.837Z,213.75
2018-03-21T07:40:33.761Z,213.75
2018-03-21T07:42:33.654Z,213.75
2018-03-21T07:43:33.678Z,213.75
2018-03-21T07:45:33.563Z,213.75
2018-03-21T07:46:33.543Z,213.75
2018-03-21T07:47:33.921Z,208.13
2018-03-21T07:48:33.506Z,213.75
2018-03-21T07:49:33.503Z,213.75
2018-03-21T07:50:33.437Z,219.38
2018-03-21T07:51:33.418Z,225.00
2018-03-21T07:52:33.385Z,236.25
2018-03-21T07:53:33.673Z,247.50
2018-03-21T07:54:33.341Z,258.75
2018-03-21T07:55:33.520Z,270.00
2018-03-21T07:56:33.308Z,275.63
2018-03-21T07:57:33.255Z,281.25
2018-03-21T07:58:33.237Z,292.50
2018-03-21T07:59:33.213Z,298.13
2018-03-21T08:00:33.197Z,303.75
2018-03-21T08:01:33.213Z,309.38
2018-03-21T08:02:33.146Z,309.38
2018-03-21T08:03:33.219Z,315.00
2018-03-21T08:05:33.389Z,315.00
2018-03-21T08:06:33.054Z,320.63
2018-03-21T08:07:33.093Z,320.63
2018-03-21T08:09:32.989Z,303.75
2018-03-21T08:10:32.973Z,303.75
2018-03-21T08:11:32.947Z,298.13
2018-03-21T08:12:33.276Z,292.50
2018-03-21T08:13:32.952Z,303.75
2018-03-21T08:14:32.904Z,303.75
2018-03-21T08:15:32.903Z,303.75
2018-03-21T08:17:32.820Z,292.50
2018-03-21T08:18:33.719Z,298.13
2018-03-21T08:19:33.189Z,292.50
2018-03-21T08:20:33.537Z,298.13
2018-03-21T08:21:34.845Z,298.13
2018-03-21T08:22:33.212Z,298.13
2018-03-21T08:23:33.054Z,303.75
2018-03-21T08:25:32.697Z,320.63
2018-03-21T08:26:32.927Z,326.25
2018-03-21T08:27:32.605Z,343.13
2018-03-21T08:29:32.615Z,365.63
2018-03-21T08:30:32.546Z,360.00
2018-03-21T08:31:32.553Z,365.63
2018-03-21T08:32:32.786Z,365.63
2018-03-21T08:33:32.521Z,382.50
2018-03-21T08:34:32.457Z,388.13
2018-03-21T08:35:32.491Z,393.75
2018-03-21T08:36:33.787Z,405.00
2018-03-21T08:37:33.244Z,416.25
2018-03-21T08:38:33.209Z,438.75
2018-03-21T08:39:32.668Z,444.38
2018-03-21T08:42:34.170Z,472.50
2018-03-21T08:43:32.824Z,450.00
2018-03-21T08:44:32.533Z,472.50
2018-03-21T09:05:48.296Z,1383.75
2018-03-21T09:06:48.146Z,1743.75
2018-03-21T09:07:48.121Z,1861.88
2018-03-21T09:08:48.101Z,1974.38
2018-03-21T09:09:48.004Z,1957.50
2018-03-21T09:10:47.999Z,2036.25
2018-03-21T09:11:48.339Z,2098.13
2018-03-21T09:12:48.007Z,2238.75
2018-03-21T09:13:48.031Z,2334.38
2018-03-21T09:14:47.913Z,2250.00
2018-03-21T09:15:47.938Z,2137.50
2018-03-21T09:16:47.987Z,2188.13
2018-03-21T09:17:47.912Z,2250.00
2018-03-21T09:18:48.154Z,2390.63
2018-03-21T09:19:47.825Z,2345.63
2018-03-21T09:20:47.820Z,2272.50
2018-03-21T09:21:47.794Z,2210.63
2018-03-21T09:22:47.776Z,2323.13
2018-03-21T09:23:47.810Z,2480.63
2018-03-21T09:24:47.749Z,2446.88
2018-03-21T09:27:47.992Z,2486.25
2018-03-21T09:28:47.688Z,2379.38
2018-03-21T09:30:47.750Z,2143.13
2018-03-21T09:31:47.622Z,2137.50
2018-03-21T09:32:47.606Z,2092.50
2018-03-21T09:33:47.890Z,1940.63
2018-03-21T09:34:47.597Z,1800.00
2018-03-21T09:35:47.565Z,1850.63
2018-03-21T09:36:47.610Z,1816.88
2018-03-21T09:37:47.594Z,1980.00
2018-03-21T09:38:47.528Z,2019.38
2018-03-21T09:39:47.566Z,2081.25
2018-03-21T09:40:47.793Z,2053.13
2018-03-21T09:41:47.839Z,2002.50
2018-03-21T09:42:47.504Z,2064.38
2018-03-21T09:43:47.504Z,2171.25
2018-03-21T09:44:47.444Z,2165.63
2018-03-21T09:45:47.409Z,2238.75
2018-03-21T09:46:47.448Z,2221.88
2018-03-21T09:48:47.720Z,2362.50
2018-03-21T09:49:47.376Z,2480.63
2018-03-21T09:50:47.337Z,2638.13
2018-03-21T09:51:47.423Z,2806.88
2018-03-21T09:52:47.305Z,2857.50
2018-03-21T09:53:47.350Z,2694.38
2018-03-21T09:54:47.640Z,2643.75
2018-03-21T09:55:47.325Z,2756.25
2018-03-21T09:56:47.287Z,2756.25
2018-03-21T09:57:47.260Z,2576.25
2018-03-21T09:58:47.252Z,2739.38
2018-03-21T09:59:47.960Z,2795.63
2018-03-21T10:00:47.638Z,2750.63
2018-03-21T10:01:47.172Z,2812.50
2018-03-21T10:02:47.177Z,2823.75
2018-03-21T10:03:47.639Z,2947.50
2018-03-21T10:04:47.143Z,2964.38
2018-03-21T10:06:47.514Z,2790.00
2018-03-21T10:07:47.173Z,2953.13
2018-03-21T10:08:47.275Z,2615.63
2018-03-21T10:09:47.083Z,2278.13
2018-03-21T10:10:47.094Z,2413.13
2018-03-21T10:11:47.053Z,2559.38
2018-03-21T10:12:47.477Z,2666.25
2018-03-21T10:13:47.005Z,2598.75
2018-03-21T10:15:47.026Z,2300.63
2018-03-21T10:16:46.978Z,2272.50
2018-03-21T10:17:46.957Z,2210.63
2018-03-21T10:18:47.957Z,2266.88
2018-03-21T10:19:46.940Z,2115.00
2018-03-21T10:20:46.930Z,1828.13
2018-03-21T10:21:46.899Z,1603.13
2018-03-21T10:22:46.904Z,1383.75
2018-03-21T10:23:46.998Z,1265.63
2018-03-21T10:24:47.219Z,1575.00
2018-03-21T10:25:46.856Z,1884.38
2018-03-21T10:26:46.843Z,2086.88
2018-03-21T10:27:46.836Z,2103.75
2018-03-21T10:28:46.868Z,2053.13
2018-03-21T10:29:46.962Z,2306.25
2018-03-21T10:30:47.156Z,2508.75
2018-03-21T10:31:46.855Z,2660.63
2018-03-21T10:32:46.766Z,2655.00
2018-03-21T10:34:46.743Z,2705.63
2018-03-21T10:35:46.784Z,2705.63
2018-03-21T10:36:46.819Z,2750.63
2018-03-21T10:38:46.984Z,984.38
2018-03-21T10:39:46.693Z,826.88
2018-03-21T10:40:46.665Z,770.63
2018-03-21T10:41:46.653Z,759.38
2018-03-21T10:42:46.730Z,748.13
2018-03-21T10:43:46.628Z,725.63
2018-03-21T10:44:46.666Z,720.00
2018-03-21T10:45:47.897Z,714.38
2018-03-21T10:46:46.595Z,703.13
2018-03-21T10:47:46.598Z,697.50
2018-03-21T10:48:46.620Z,703.13
2018-03-21T10:49:46.639Z,691.88
2018-03-21T10:50:46.701Z,675.00
2018-03-21T10:51:46.597Z,686.25
2018-03-21T10:52:46.926Z,703.13
2018-03-21T10:53:46.513Z,714.38
2018-03-21T10:54:46.547Z,742.50
2018-03-21T10:55:46.494Z,821.25
2018-03-21T10:56:46.520Z,1265.63
2018-03-21T10:57:46.460Z,2272.50
2018-03-21T10:58:46.451Z,2497.50
2018-03-21T10:59:46.737Z,2238.75
2018-03-21T11:00:46.476Z,2165.63
2018-03-21T11:01:46.464Z,2446.88
2018-03-21T11:03:46.398Z,2486.25
2018-03-21T11:04:47.134Z,2632.50
2018-03-21T11:05:46.699Z,2655.00
2018-03-21T11:06:46.417Z,2441.25
2018-03-21T11:07:46.399Z,2002.50
2018-03-21T11:08:46.346Z,1771.88
2018-03-21T11:09:46.328Z,1333.13
2018-03-21T11:10:46.400Z,973.13
2018-03-21T11:11:46.380Z,843.75
2018-03-21T11:12:46.911Z,793.13
2018-03-21T11:13:46.309Z,748.13
2018-03-21T11:14:46.330Z,759.38
2018-03-21T11:16:46.335Z,697.50
2018-03-21T11:17:46.261Z,641.25
2018-03-21T11:18:46.300Z,596.25
2018-03-21T11:20:46.596Z,686.25
2018-03-21T11:21:46.295Z,680.63
2018-03-21T11:22:46.287Z,669.38
2018-03-21T11:23:46.287Z,686.25
2018-03-21T11:24:46.225Z,708.75
2018-03-21T11:25:46.263Z,658.13
2018-03-21T11:26:46.459Z,652.50
2018-03-21T11:27:46.196Z,624.38
2018-03-21T11:28:46.119Z,590.63
2018-03-21T11:29:46.217Z,601.88
2018-03-21T11:30:46.162Z,607.50
2018-03-21T11:31:46.234Z,601.88
2018-03-21T11:32:46.387Z,607.50
2018-03-21T11:33:46.075Z,596.25
2018-03-21T11:34:46.133Z,641.25
2018-03-21T11:36:46.179Z,641.25
2018-03-21T11:37:46.086Z,652.50
2018-03-21T11:38:46.319Z,680.63
2018-03-21T11:39:46.022Z,691.88
2018-03-21T11:41:45.995Z,675.00
2018-03-21T11:42:46.026Z,669.38
2018-03-21T11:43:45.976Z,675.00
2018-03-21T11:44:46.275Z,675.00
2018-03-21T11:45:45.944Z,652.50
2018-03-21T11:46:45.941Z,641.25
2018-03-21T11:48:45.965Z,652.50
2018-03-21T11:49:45.896Z,658.13
2018-03-21T11:50:45.885Z,697.50
2018-03-21T11:51:46.175Z,663.75
2018-03-21T11:52:45.869Z,658.13
2018-03-21T11:54:45.987Z,691.88
2018-03-21T11:55:45.910Z,686.25
2018-03-21T11:57:46.126Z,720.00
2018-03-21T11:58:45.803Z,663.75
2018-03-21T11:59:45.804Z,652.50
2018-03-21T12:00:45.832Z,646.88
2018-03-21T12:02:45.769Z,736.88
2018-03-21T12:03:46.374Z,731.25
2018-03-21T12:04:46.114Z,708.75
2018-03-21T12:05:45.812Z,708.75
2018-03-21T12:06:45.879Z,675.00
2018-03-21T12:07:45.787Z,517.50
2018-03-21T12:08:45.847Z,534.38
2018-03-21T12:09:45.692Z,556.88
2018-03-21T12:10:45.700Z,697.50
2018-03-21T12:12:45.728Z,708.75
2018-03-21T12:13:45.660Z,776.25
2018-03-21T12:14:45.729Z,742.50
2018-03-21T12:15:45.686Z,787.50
2018-03-21T12:16:45.620Z,781.88
2018-03-21T12:17:45.617Z,731.25
2018-03-21T12:18:45.954Z,781.88
2018-03-21T12:19:45.893Z,753.75
2018-03-21T12:20:45.664Z,787.50
2018-03-21T12:21:46.078Z,793.13
2018-03-21T12:22:45.627Z,691.88
2018-03-21T12:23:45.620Z,703.13
2018-03-21T12:24:46.086Z,708.75
2018-03-21T12:25:45.606Z,838.13
2018-03-21T12:26:45.596Z,697.50
2018-03-21T12:27:45.568Z,860.63
2018-03-21T12:28:45.859Z,883.13
2018-03-21T12:29:45.552Z,821.25
2018-03-21T12:30:45.930Z,849.38
2018-03-21T12:31:45.469Z,855.00
2018-03-21T12:32:45.515Z,703.13
2018-03-21T12:33:45.522Z,686.25
2018-03-21T12:34:45.489Z,765.00
2018-03-21T12:35:45.422Z,821.25
2018-03-21T12:36:45.467Z,843.75
2018-03-21T12:37:45.709Z,663.75
2018-03-21T12:38:45.396Z,630.00
2018-03-21T12:39:45.529Z,601.88
2018-03-21T12:40:45.374Z,568.13
2018-03-21T12:42:45.419Z,556.88
2018-03-21T12:43:45.345Z,601.88
2018-03-21T12:44:45.706Z,646.88
2018-03-21T12:45:45.315Z,652.50
2018-03-21T12:46:45.299Z,708.75
2018-03-21T12:47:45.303Z,883.13
2018-03-21T12:48:45.355Z,855.00
2018-03-21T12:49:45.287Z,826.88
2018-03-21T12:51:45.628Z,804.38
2018-03-21T12:52:45.325Z,652.50
2018-03-21T12:53:45.301Z,703.13
2018-03-21T12:54:45.354Z,658.13
2018-03-21T12:55:45.336Z,714.38
2018-03-21T12:57:45.562Z,596.25
2018-03-21T12:58:45.232Z,585.00
2018-03-21T12:59:45.199Z,630.00
2018-03-21T13:00:45.309Z,534.38
2018-03-21T13:01:45.228Z,483.75
2018-03-21T13:02:45.231Z,506.25
2018-03-21T13:03:45.509Z,551.25
2018-03-21T13:04:45.112Z,483.75
2018-03-21T13:05:45.091Z,489.38
2018-03-21T13:06:45.132Z,511.88
2018-03-21T13:07:45.201Z,573.75
2018-03-21T13:08:45.054Z,500.63
2018-03-21T13:09:45.351Z,489.38
2018-03-21T13:10:45.040Z,495.00
2018-03-21T13:11:45.428Z,528.75
2018-03-21T13:12:44.999Z,652.50
2018-03-21T13:13:44.997Z,534.38
2018-03-21T13:14:44.978Z,534.38
2018-03-21T13:15:45.256Z,596.25
2018-03-21T13:16:44.950Z,556.88
2018-03-21T13:17:51.414Z,585.00
2018-03-21T13:18:44.926Z,568.13
2018-03-21T13:20:44.938Z,590.63
2018-03-21T13:21:45.197Z,601.88
2018-03-21T13:22:44.948Z,736.88
2018-03-21T13:23:45.402Z,646.88
2018-03-21T13:24:44.840Z,635.63
2018-03-21T13:25:44.835Z,641.25
2018-03-21T13:26:44.890Z,579.38
2018-03-21T13:27:47.661Z,585.00
2018-03-21T13:28:44.865Z,500.63
2018-03-21T13:29:44.900Z,489.38
2018-03-21T13:30:44.765Z,478.13
2018-03-21T13:32:44.741Z,466.88
2018-03-21T13:33:45.052Z,461.25
2018-03-21T13:34:44.705Z,455.63
2018-03-21T13:35:44.753Z,461.25
2018-03-21T13:36:44.679Z,500.63
2018-03-21T13:37:44.837Z,545.63
2018-03-21T13:38:44.650Z,708.75
2018-03-21T13:39:44.933Z,675.00
2018-03-21T13:40:44.648Z,506.25
2018-03-21T13:41:44.677Z,466.88
2018-03-21T13:42:45.042Z,393.75
2018-03-21T13:43:44.581Z,331.88
2018-03-21T13:44:44.563Z,320.63
2018-03-21T13:45:44.564Z,331.88
2018-03-21T13:46:44.914Z,388.13
2018-03-21T13:47:44.651Z,337.50
2018-03-21T13:48:44.601Z,343.13
2018-03-21T13:49:44.512Z,320.63
2018-03-21T13:50:44.478Z,337.50
2018-03-21T13:51:44.491Z,360.00
2018-03-21T13:53:44.788Z,388.13
2018-03-21T13:54:44.421Z,461.25
2018-03-21T13:55:44.535Z,416.25
2018-03-21T13:56:44.450Z,399.38
2018-03-21T13:57:44.430Z,399.38
2018-03-21T13:58:44.410Z,388.13
2018-03-21T13:59:45.737Z,376.88
2018-03-21T14:00:44.311Z,376.88
2018-03-21T14:01:44.358Z,371.25
2018-03-21T14:02:44.311Z,365.63